Observation data for Northwest San Angelo on 09/18/2020      Previous  Date  Next       Current Mesonet Observations  Soil Data  Daily Summary Page  Observations in Plain Language
KASU 180500Z 02002KT 19/15 A3013 RMK A01 T01880149  RH  081%=      5-min Rain = 0
KASU 180505Z 02003KT 19/15 A3013 RMK A01 T01870148  RH  082%=      5-min Rain = 0
KASU 180510Z 01002KT 19/15 A3013 RMK A01 T01850149  RH  083%=      5-min Rain = 0
KASU 180515Z 01003KT 19/15 A3013 RMK A01 T01850148  RH  083%=      5-min Rain = 0
KASU 180520Z 01003KT 18/15 A3013 RMK A01 T01840149  RH  083%=      5-min Rain = 0
KASU 180525Z 00003KT 18/15 A3013 RMK A01 T01840148  RH  083%=      5-min Rain = 0
KASU 180530Z 01003KT 18/15 A3012 RMK A01 T01840148  RH  083%=      5-min Rain = 0
KASU 180535Z 02002KT 18/15 A3012 RMK A01 T01820149  RH  084%=      5-min Rain = 0
KASU 180540Z 02002KT 18/15 A3013 RMK A01 T01810148  RH  085%=      5-min Rain = 0
KASU 180545Z 02002KT 18/15 A3013 RMK A01 T01810148  RH  085%=      5-min Rain = 0
KASU 180550Z 02002KT 18/15 A3013 RMK A01 T01810147  RH  084%=      5-min Rain = 0
KASU 180555Z 01002KT 18/15 A3013 RMK A01 T01820146  RH  083%=      5-min Rain = 0
KASU 180600Z 01002KT 18/15 A3013 RMK A01 T01820147  RH  083%=      5-min Rain = 0
KASU 180605Z 34002KT 18/15 A3013 RMK A01 T01830146  RH  082%=      5-min Rain = 0
KASU 180610Z 33002KT 18/15 A3013 RMK A01 T01830146  RH  083%=      5-min Rain = 0
KASU 180615Z 33003KT 18/15 A3013 RMK A01 T01820146  RH  083%=      5-min Rain = 0
KASU 180620Z 34003KT 18/15 A3013 RMK A01 T01820147  RH  083%=      5-min Rain = 0
KASU 180625Z 36003KT 18/15 A3013 RMK A01 T01820146  RH  083%=      5-min Rain = 0
KASU 180630Z 34003KT 18/15 A3013 RMK A01 T01810147  RH  084%=      5-min Rain = 0
KASU 180635Z 34003KT 18/15 A3013 RMK A01 T01790147  RH  085%=      5-min Rain = 0
KASU 180640Z 32002KT 18/15 A3013 RMK A01 T01780148  RH  086%=      5-min Rain = 0
KASU 180645Z 30001KT 18/15 A3013 RMK A01 T01770149  RH  087%=      5-min Rain = 0
KASU 180650Z 30001KT 18/15 A3013 RMK A01 T01760149  RH  088%=      5-min Rain = 0
KASU 180655Z 30002KT 18/15 A3013 RMK A01 T01750150  RH  089%=      5-min Rain = 0
KASU 180700Z 30002KT 17/15 A3013 RMK A01 T01740150  RH  090%=      5-min Rain = 0
KASU 180705Z 30002KT 17/15 A3012 RMK A01 T01740149  RH  089%=      5-min Rain = 0
KASU 180710Z 30002KT 18/15 A3012 RMK A01 T01750149  RH  089%=      5-min Rain = 0
KASU 180715Z 30002KT 18/15 A3012 RMK A01 T01750149  RH  089%=      5-min Rain = 0
KASU 180720Z 30002KT 17/15 A3013 RMK A01 T01740149  RH  089%=      5-min Rain = 0
KASU 180725Z 31002KT 18/15 A3013 RMK A01 T01750149  RH  088%=      5-min Rain = 0
KASU 180730Z 31002KT 17/15 A3013 RMK A01 T01740149  RH  089%=      5-min Rain = 0
KASU 180735Z 18001KT 17/15 A3013 RMK A01 T01730148  RH  089%=      5-min Rain = 0
KASU 180740Z 16000KT 17/15 A3013 RMK A01 T01710147  RH  089%=      5-min Rain = 0
KASU 180745Z 33001KT 17/15 A3013 RMK A01 T01710148  RH  090%=      5-min Rain = 0
KASU 180750Z 34001KT 17/15 A3013 RMK A01 T01710148  RH  090%=      5-min Rain = 0
KASU 180755Z 29001KT 17/15 A3013 RMK A01 T01700148  RH  091%=      5-min Rain = 0
KASU 180800Z 27002KT 17/15 A3013 RMK A01 T01680148  RH  092%=      5-min Rain = 0
KASU 180805Z 28003KT 17/15 A3013 RMK A01 T01700146  RH  090%=      5-min Rain = 0
KASU 180810Z 29002KT 17/15 A3013 RMK A01 T01700147  RH  090%=      5-min Rain = 0
KASU 180815Z 31002KT 17/15 A3013 RMK A01 T01700147  RH  090%=      5-min Rain = 0
KASU 180820Z 32003KT 17/15 A3013 RMK A01 T01700147  RH  090%=      5-min Rain = 0
KASU 180825Z 32003KT 17/15 A3012 RMK A01 T01690147  RH  091%=      5-min Rain = 0
KASU 180830Z 32004KT 17/15 A3013 RMK A01 T01700147  RH  090%=      5-min Rain = 0
KASU 180835Z 33003KT 17/15 A3013 RMK A01 T01720147  RH  089%=      5-min Rain = 0
KASU 180840Z 33004KT 17/15 A3013 RMK A01 T01740146  RH  088%=      5-min Rain = 0
KASU 180845Z 33004KT 17/15 A3013 RMK A01 T01740146  RH  087%=      5-min Rain = 0
KASU 180850Z 32004KT 17/15 A3012 RMK A01 T01740147  RH  088%=      5-min Rain = 0
KASU 180855Z 32003KT 17/15 A3012 RMK A01 T01740147  RH  088%=      5-min Rain = 0
KASU 180900Z 31003KT 18/15 A3013 RMK A01 T01750146  RH  087%=      5-min Rain = 0
KASU 180905Z 31003KT 18/15 A3013 RMK A01 T01750146  RH  087%=      5-min Rain = 0
KASU 180910Z 31003KT 17/15 A3013 RMK A01 T01740146  RH  087%=      5-min Rain = 0
KASU 180915Z 31003KT 17/15 A3013 RMK A01 T01730146  RH  088%=      5-min Rain = 0
KASU 180920Z 32002KT 17/15 A3013 RMK A01 T01720146  RH  089%=      5-min Rain = 0
KASU 180925Z 31003KT 17/15 A3013 RMK A01 T01700147  RH  090%=      5-min Rain = 0
KASU 180930Z 32002KT 17/15 A3013 RMK A01 T01690147  RH  090%=      5-min Rain = 0
KASU 180935Z 32002KT 17/15 A3013 RMK A01 T01690146  RH  091%=      5-min Rain = 0
KASU 180940Z 32002KT 17/15 A3013 RMK A01 T01690146  RH  091%=      5-min Rain = 0
KASU 180945Z 30001KT 17/15 A3013 RMK A01 T01690146  RH  090%=      5-min Rain = 0
KASU 180950Z 23000KT 17/15 A3013 RMK A01 T01700146  RH  090%=      5-min Rain = 0
KASU 180955Z 27001KT 17/15 A3013 RMK A01 T01710147  RH  090%=      5-min Rain = 0
KASU 181000Z 27002KT 17/15 A3013 RMK A01 T01670146  RH  091%=      5-min Rain = 0
KASU 181005Z 25001KT 17/15 A3013 RMK A01 T01660146  RH  092%=      5-min Rain = 0
KASU 181010Z 28001KT 17/15 A3013 RMK A01 T01650146  RH  092%=      5-min Rain = 0
KASU 181015Z 29001KT 17/15 A3013 RMK A01 T01650146  RH  093%=      5-min Rain = 0
KASU 181020Z 28001KT 17/15 A3013 RMK A01 T01650147  RH  093%=      5-min Rain = 0
KASU 181025Z 28001KT 17/15 A3013 RMK A01 T01650147  RH  093%=      5-min Rain = 0
KASU 181030Z 30003KT 17/15 A3013 RMK A01 T01660148  RH  093%=      5-min Rain = 0
KASU 181035Z 31003KT 17/15 A3013 RMK A01 T01660148  RH  093%=      5-min Rain = 0
KASU 181040Z 31003KT 17/15 A3013 RMK A01 T01670148  RH  093%=      5-min Rain = 0
KASU 181045Z 31002KT 17/15 A3013 RMK A01 T01680148  RH  092%=      5-min Rain = 0
KASU 181050Z 29002KT 17/15 A3013 RMK A01 T01680148  RH  092%=      5-min Rain = 0
KASU 181055Z 30002KT 17/15 A3013 RMK A01 T01680147  RH  092%=      5-min Rain = 0
KASU 181100Z 31002KT 17/15 A3014 RMK A01 T01680148  RH  092%=      5-min Rain = 0
KASU 181105Z 31002KT 17/15 A3014 RMK A01 T01690148  RH  092%=      5-min Rain = 0
KASU 181110Z 31003KT 17/15 A3014 RMK A01 T01690148  RH  092%=      5-min Rain = 0
KASU 181115Z 32003KT 17/15 A3014 RMK A01 T01690148  RH  091%=      5-min Rain = 0
KASU 181120Z 31003KT 17/15 A3014 RMK A01 T01700148  RH  091%=      5-min Rain = 0
KASU 181125Z 31002KT 17/15 A3014 RMK A01 T01710148  RH  090%=      5-min Rain = 0
KASU 181130Z 31003KT 17/15 A3014 RMK A01 T01710147  RH  090%=      5-min Rain = 0
KASU 181135Z 32003KT 17/15 A3014 RMK A01 T01720148  RH  090%=      5-min Rain = 0
KASU 181140Z 33002KT 17/15 A3014 RMK A01 T01700147  RH  090%=      5-min Rain = 0
KASU 181145Z 34003KT 17/15 A3014 RMK A01 T01700147  RH  090%=      5-min Rain = 0
KASU 181150Z 34003KT 17/15 A3014 RMK A01 T01710148  RH  090%=      5-min Rain = 0
KASU 181155Z 33002KT 17/15 A3015 RMK A01 T01720148  RH  090%=      5-min Rain = 0
KASU 181200Z 32002KT 17/15 A3015 RMK A01 T01740149  RH  089%=      5-min Rain = 0
KASU 181205Z 29002KT 17/15 A3015 RMK A01 T01740149  RH  089%=      5-min Rain = 0
KASU 181210Z 28002KT 17/15 A3015 RMK A01 T01720149  RH  090%=      5-min Rain = 0
KASU 181215Z 31004KT 17/15 A3015 RMK A01 T01700149  RH  091%=      5-min Rain = 0
KASU 181220Z 32004KT 17/15 A3015 RMK A01 T01700149  RH  092%=      5-min Rain = 0
KASU 181225Z 33004KT 17/15 A3015 RMK A01 T01710149  RH  091%=      5-min Rain = 0
KASU 181230Z 33003KT 17/15 A3015 RMK A01 T01690148  RH  091%=      5-min Rain = 0
KASU 181235Z 33003KT 17/15 A3016 RMK A01 T01690148  RH  091%=      5-min Rain = 0
KASU 181240Z 33003KT 17/15 A3016 RMK A01 T01690148  RH  092%=      5-min Rain = 0
KASU 181245Z 32003KT 17/15 A3016 RMK A01 T01690149  RH  092%=      5-min Rain = 0
KASU 181250Z 31003KT 17/15 A3016 RMK A01 T01700149  RH  092%=      5-min Rain = 0
KASU 181255Z 31002KT 17/15 A3016 RMK A01 T01710150  RH  091%=      5-min Rain = 0
KASU 181300Z 30003KT 17/15 A3016 RMK A01 T01730151  RH  091%=      5-min Rain = 0
KASU 181305Z 29003KT 18/15 A3017 RMK A01 T01750151  RH  090%=      5-min Rain = 0
KASU 181310Z 30003KT 18/15 A3017 RMK A01 T01760151  RH  089%=      5-min Rain = 0
KASU 181315Z 31003KT 18/15 A3017 RMK A01 T01780152  RH  089%=      5-min Rain = 0
KASU 181320Z 32004KT 18/15 A3017 RMK A01 T01790153  RH  089%=      5-min Rain = 0
KASU 181325Z 33004KT 18/16 A3018 RMK A01 T01800155  RH  089%=      5-min Rain = 0
KASU 181330Z 33003KT 18/16 A3018 RMK A01 T01830157  RH  089%=      5-min Rain = 0
KASU 181335Z 32004KT 19/16 A3018 RMK A01 T01860157  RH  087%=      5-min Rain = 0
KASU 181340Z 31004KT 19/16 A3018 RMK A01 T01880156  RH  085%=      5-min Rain = 0
KASU 181345Z 31003KT 19/16 A3018 RMK A01 T01920158  RH  084%=      5-min Rain = 0
KASU 181350Z 32002KT 20/16 A3018 RMK A01 T01950158  RH  083%=      5-min Rain = 0
KASU 181355Z 31002KT 20/16 A3019 RMK A01 T01980159  RH  082%=      5-min Rain = 0
KASU 181400Z 30002KT 20/16 A3019 RMK A01 T02020162  RH  082%=      5-min Rain = 0
KASU 181405Z 27001KT 21/16 A3019 RMK A01 T02060163  RH  080%=      5-min Rain = 0
KASU 181410Z 29002KT 21/16 A3019 RMK A01 T02080164  RH  080%=      5-min Rain = 0
KASU 181415Z 32001KT 21/17 A3019 RMK A01 T02110166  RH  079%=      5-min Rain = 0
KASU 181420Z 05002KT 22/17 A3019 RMK A01 T02160168  RH  078%=      5-min Rain = 0
KASU 181425Z 06004KT 22/16 A3019 RMK A01 T02240163  RH  072%=      5-min Rain = 0
KASU 181430Z 05004KT 23/17 A3019 RMK A01 T02290165  RH  071%=      5-min Rain = 0
KASU 181435Z 06004KT 23/17 A3019 RMK A01 T02330167  RH  070%=      5-min Rain = 0
KASU 181440Z 05006KT 23/16 A3019 RMK A01 T02340164  RH  068%=      5-min Rain = 0
KASU 181445Z 06005KT 23/16 A302 RMK A01 T02340164  RH  068%=      5-min Rain = 0
KASU 181450Z 05004KT 24/17 A302 RMK A01 T02390166  RH  067%=      5-min Rain = 0
KASU 181455Z 05005KT 24/16 A302 RMK A01 T02390163  RH  066%=      5-min Rain = 0
KASU 181500Z 05007KT 24/16 A302 RMK A01 T02380162  RH  066%=      5-min Rain = 0
KASU 181505Z 04007KT 24/16 A302 RMK A01 T02380162  RH  065%=      5-min Rain = 0
KASU 181510Z 05006KT 24/16 A302 RMK A01 T02400163  RH  065%=      5-min Rain = 0
KASU 181515Z 04005KT 24/16 A302 RMK A01 T02400162  RH  064%=      5-min Rain = 0
KASU 181520Z 05006KT 24/16 A302 RMK A01 T02410162  RH  064%=      5-min Rain = 0
KASU 181525Z 03004G9KT 24/16 A3021 RMK A01 T02380159  RH  064%=      5-min Rain = 0
KASU 181530Z 05005KT 24/16 A3021 RMK A01 T02380159  RH  064%=      5-min Rain = 0
KASU 181535Z 04005KT 24/16 A3021 RMK A01 T02370157  RH  064%=      5-min Rain = 0
KASU 181540Z 06005KT 24/16 A3021 RMK A01 T02400159  RH  063%=      5-min Rain = 0
KASU 181545Z 06007KT 25/16 A3021 RMK A01 T02470158  RH  060%=      5-min Rain = 0
KASU 181550Z 07006KT 25/16 A3021 RMK A01 T02490157  RH  059%=      5-min Rain = 0
KASU 181555Z 06007KT 25/16 A3021 RMK A01 T02520155  RH  057%=      5-min Rain = 0
KASU 181600Z 05007G12KT 25/15 A3021 RMK A01 T02520153  RH  057%=      5-min Rain = 0
KASU 181605Z 04006KT 25/15 A3021 RMK A01 T02520150  RH  056%=      5-min Rain = 0
KASU 181610Z 06006KT 25/15 A3021 RMK A01 T02490150  RH  056%=      5-min Rain = 0
KASU 181615Z 08007KT 26/15 A3021 RMK A01 T02570150  RH  054%=      5-min Rain = 0
KASU 181620Z 04005G10KT 26/15 A3021 RMK A01 T02560150  RH  054%=      5-min Rain = 0
KASU 181625Z 03005G10KT 26/15 A3021 RMK A01 T02560149  RH  054%=      5-min Rain = 0
KASU 181630Z 05005G10KT 25/15 A3021 RMK A01 T02530150  RH  055%=      5-min Rain = 0
KASU 181635Z 05008G13KT 26/15 A3021 RMK A01 T02580151  RH  054%=      5-min Rain = 0
KASU 181640Z 05010G15KT 25/15 A3021 RMK A01 T02540151  RH  055%=      5-min Rain = 0
KASU 181645Z 05007G13KT 25/15 A3021 RMK A01 T02520151  RH  056%=      5-min Rain = 0
KASU 181650Z 04006G11KT 26/15 A3021 RMK A01 T02600152  RH  054%=      5-min Rain = 0
KASU 181655Z 06008G14KT 26/15 A302 RMK A01 T02600152  RH  054%=      5-min Rain = 0
KASU 181700Z 05006KT 26/15 A302 RMK A01 T02620152  RH  053%=      5-min Rain = 0
KASU 181705Z 03007G12KT 27/15 A302 RMK A01 T02650151  RH  052%=      5-min Rain = 0
KASU 181710Z 03007G12KT 26/14 A302 RMK A01 T02610144  RH  051%=      5-min Rain = 0
KASU 181715Z 04008KT 26/14 A302 RMK A01 T02580138  RH  050%=      5-min Rain = 0
KASU 181720Z 36007G13KT 26/15 A302 RMK A01 T02570145  RH  052%=      5-min Rain = 0
KASU 181725Z 35009KT 26/14 A302 RMK A01 T02550139  RH  051%=      5-min Rain = 0
KASU 181730Z 01006KT 25/14 A302 RMK A01 T02520142  RH  053%=      5-min Rain = 0
KASU 181735Z 01006KT 25/14 A302 RMK A01 T02510143  RH  053%=      5-min Rain = 0
KASU 181740Z 01006KT 26/14 A302 RMK A01 T02590143  RH  051%=      5-min Rain = 0
KASU 181745Z 04006KT 27/14 A302 RMK A01 T02650142  RH  049%=      5-min Rain = 0
KASU 181750Z 05004KT 27/14 A3019 RMK A01 T02650140  RH  048%=      5-min Rain = 0
KASU 181755Z 04009G15KT 27/13 A3019 RMK A01 T02660132  RH  045%=      5-min Rain = 0
KASU 181800Z 02006G11KT 27/13 A3019 RMK A01 T02680134  RH  045%=      5-min Rain = 0
KASU 181805Z 05007KT 27/14 A3019 RMK A01 T02740142  RH  046%=      5-min Rain = 0
KASU 181810Z 02007G13KT 27/13 A3019 RMK A01 T02660134  RH  046%=      5-min Rain = 0
KASU 181815Z 02004KT 26/14 A3018 RMK A01 T02640135  RH  047%=      5-min Rain = 0
KASU 181820Z 36007G13KT 27/14 A3018 RMK A01 T02720139  RH  046%=      5-min Rain = 0
KASU 181825Z 36008G14KT 26/14 A3018 RMK A01 T02630137  RH  048%=      5-min Rain = 0
KASU 181830Z 01006KT 26/14 A3018 RMK A01 T02620138  RH  048%=      5-min Rain = 0
KASU 181835Z 01006KT 26/14 A3018 RMK A01 T02630136  RH  048%=      5-min Rain = 0
KASU 181840Z 02007KT 26/13 A3018 RMK A01 T02590129  RH  046%=      5-min Rain = 0
KASU 181845Z 01004KT 27/13 A3018 RMK A01 T02670132  RH  045%=      5-min Rain = 0
KASU 181850Z 04007KT 27/12 A3017 RMK A01 T02710124  RH  042%=      5-min Rain = 0
KASU 181855Z 02007KT 27/13 A3017 RMK A01 T02730129  RH  043%=      5-min Rain = 0
KASU 181900Z 01006G11KT 27/13 A3017 RMK A01 T02670125  RH  043%=      5-min Rain = 0
KASU 181905Z 02008G13KT 27/13 A3017 RMK A01 T02720128  RH  042%=      5-min Rain = 0
KASU 181910Z 03004G9KT 28/13 A3016 RMK A01 T02780132  RH  042%=      5-min Rain = 0
KASU 181915Z 04008G17KT 28/13 A3016 RMK A01 T02780129  RH  041%=      5-min Rain = 0
KASU 181920Z 03008G15KT 27/13 A3016 RMK A01 T02680127  RH  043%=      5-min Rain = 0
KASU 181925Z 05009KT 27/13 A3016 RMK A01 T02740132  RH  043%=      5-min Rain = 0
KASU 181930Z 07010KT 28/13 A3015 RMK A01 T02770127  RH  041%=      5-min Rain = 0
KASU 181935Z 06010KT 28/12 A3015 RMK A01 T02790122  RH  039%=      5-min Rain = 0
KASU 181940Z 05009G16KT 28/13 A3015 RMK A01 T02790128  RH  041%=      5-min Rain = 0
KASU 181945Z 05012KT 28/12 A3015 RMK A01 T02790120  RH  039%=      5-min Rain = 0
KASU 181950Z 06010G17KT 28/12 A3015 RMK A01 T02790119  RH  039%=      5-min Rain = 0
KASU 181955Z 06010G16KT 28/12 A3014 RMK A01 T02820121  RH  038%=      5-min Rain = 0
KASU 182000Z 01010G15KT 28/14 A3014 RMK A01 T02830135  RH  042%=      5-min Rain = 0
KASU 182005Z 02010G15KT 27/13 A3014 RMK A01 T02740127  RH  042%=      5-min Rain = 0
KASU 182010Z 01008G15KT 27/13 A3014 RMK A01 T02680125  RH  043%=      5-min Rain = 0
KASU 182015Z 02007KT 27/13 A3014 RMK A01 T02720129  RH  043%=      5-min Rain = 0
KASU 182020Z 02008G14KT 28/13 A3013 RMK A01 T02780127  RH  041%=      5-min Rain = 0
KASU 182025Z 04010KT 28/12 A3013 RMK A01 T02800123  RH  039%=      5-min Rain = 0
KASU 182030Z 05009G14KT 28/12 A3013 RMK A01 T02780118  RH  038%=      5-min Rain = 0
KASU 182035Z 05007G12KT 28/12 A3013 RMK A01 T02820118  RH  037%=      5-min Rain = 0
KASU 182040Z 04007G14KT 28/12 A3013 RMK A01 T02840118  RH  037%=      5-min Rain = 0
KASU 182045Z 01009G15KT 28/13 A3013 RMK A01 T02780125  RH  040%=      5-min Rain = 0
KASU 182050Z 00008G14KT 27/12 A3013 RMK A01 T02700121  RH  041%=      5-min Rain = 0
KASU 182055Z 02005G10KT 28/12 A3013 RMK A01 T02750123  RH  040%=      5-min Rain = 0
KASU 182100Z 04008G13KT 28/12 A3013 RMK A01 T02800119  RH  038%=      5-min Rain = 0
KASU 182105Z 07008KT 28/12 A3012 RMK A01 T02830118  RH  037%=      5-min Rain = 0
KASU 182110Z 06009G22KT 28/12 A3012 RMK A01 T02830121  RH  038%=      5-min Rain = 0
KASU 182115Z 05009KT 27/12 A3012 RMK A01 T02740120  RH  040%=      5-min Rain = 0
KASU 182120Z 04007KT 27/12 A3012 RMK A01 T02710122  RH  041%=      5-min Rain = 0
KASU 182125Z 05009KT 28/13 A3012 RMK A01 T02750125  RH  041%=      5-min Rain = 0
KASU 182130Z 03005G11KT 28/13 A3012 RMK A01 T02830125  RH  039%=      5-min Rain = 0
KASU 182135Z 03007G12KT 28/12 A3012 RMK A01 T02830122  RH  038%=      5-min Rain = 0
KASU 182140Z 05006G13KT 28/12 A3011 RMK A01 T02800120  RH  038%=      5-min Rain = 0
KASU 182145Z 03008G14KT 28/13 A3011 RMK A01 T02750125  RH  041%=      5-min Rain = 0
KASU 182150Z 04008KT 27/13 A3011 RMK A01 T02690126  RH  043%=      5-min Rain = 0
KASU 182155Z 04006KT 27/13 A3011 RMK A01 T02670126  RH  043%=      5-min Rain = 0
KASU 182200Z 05005KT 27/13 A3011 RMK A01 T02730128  RH  042%=      5-min Rain = 0
KASU 182205Z 06005KT 28/13 A3011 RMK A01 T02770129  RH  041%=      5-min Rain = 0
KASU 182210Z 05006G12KT 28/13 A3011 RMK A01 T02810129  RH  041%=      5-min Rain = 0
KASU 182215Z 03007G12KT 28/13 A3011 RMK A01 T02760129  RH  042%=      5-min Rain = 0
KASU 182220Z 03005G10KT 27/13 A3011 RMK A01 T02720131  RH  043%=      5-min Rain = 0
KASU 182225Z 04009G15KT 27/13 A3011 RMK A01 T02690126  RH  043%=      5-min Rain = 0
KASU 182230Z 05010KT 27/13 A3011 RMK A01 T02660130  RH  045%=      5-min Rain = 0
KASU 182235Z 05008KT 27/14 A3011 RMK A01 T02660135  RH  046%=      5-min Rain = 0
KASU 182240Z 04006KT 27/13 A3011 RMK A01 T02720132  RH  044%=      5-min Rain = 0
KASU 182245Z 04006G13KT 28/13 A3011 RMK A01 T02760134  RH  043%=      5-min Rain = 0
KASU 182250Z 04008G13KT 28/14 A3011 RMK A01 T02760137  RH  044%=      5-min Rain = 0
KASU 182255Z 04007G12KT 28/14 A3011 RMK A01 T02750136  RH  044%=      5-min Rain = 0
KASU 182300Z 04008KT 27/13 A3011 RMK A01 T02720130  RH  043%=      5-min Rain = 0
KASU 182305Z 03006KT 27/13 A3011 RMK A01 T02670127  RH  043%=      5-min Rain = 0
KASU 182310Z 04006KT 27/13 A3011 RMK A01 T02660127  RH  044%=      5-min Rain = 0
KASU 182315Z 04005KT 27/13 A3011 RMK A01 T02660128  RH  044%=      5-min Rain = 0
KASU 182320Z 05007KT 27/13 A3011 RMK A01 T02690129  RH  044%=      5-min Rain = 0
KASU 182325Z 04008G13KT 27/13 A301 RMK A01 T02700130  RH  044%=      5-min Rain = 0
KASU 182330Z 04008G13KT 27/13 A301 RMK A01 T02700130  RH  044%=      5-min Rain = 0
KASU 182335Z 04008KT 27/13 A3011 RMK A01 T02700127  RH  043%=      5-min Rain = 0
KASU 182340Z 03006G11KT 27/13 A301 RMK A01 T02690127  RH  043%=      5-min Rain = 0
KASU 182345Z 03005G10KT 27/13 A301 RMK A01 T02680125  RH  043%=      5-min Rain = 0
KASU 182350Z 03005KT 27/13 A301 RMK A01 T02660127  RH  044%=      5-min Rain = 0
KASU 182355Z 04004KT 26/13 A301 RMK A01 T02640129  RH  045%=      5-min Rain = 0
KASU 190000Z 06007KT 26/13 A301 RMK A01 T02620132  RH  046%=      5-min Rain = 0
KASU 190005Z 06007KT 26/13 A301 RMK A01 T02600133  RH  047%=      5-min Rain = 0
KASU 190010Z 06007KT 26/13 A3011 RMK A01 T02580133  RH  048%=      5-min Rain = 0
KASU 190015Z 06008KT 26/13 A3011 RMK A01 T02580131  RH  047%=      5-min Rain = 0
KASU 190020Z 05007KT 26/13 A3011 RMK A01 T02550134  RH  049%=      5-min Rain = 0
KASU 190025Z 05006KT 25/13 A3011 RMK A01 T02530133  RH  049%=      5-min Rain = 0
KASU 190030Z 05005KT 25/13 A3011 RMK A01 T02510134  RH  050%=      5-min Rain = 0
KASU 190035Z 04005KT 25/13 A3011 RMK A01 T02490133  RH  051%=      5-min Rain = 0
KASU 190040Z 04004KT 25/13 A3012 RMK A01 T02470134  RH  051%=      5-min Rain = 0
KASU 190045Z 04004KT 25/13 A3012 RMK A01 T02450133  RH  052%=      5-min Rain = 0
KASU 190050Z 04004KT 24/13 A3012 RMK A01 T02430133  RH  052%=      5-min Rain = 0
KASU 190055Z 04005KT 24/13 A3012 RMK A01 T02400133  RH  053%=      5-min Rain = 0
KASU 190100Z 04005KT 24/13 A3012 RMK A01 T02380133  RH  054%=      5-min Rain = 0
KASU 190105Z 04004KT 24/13 A3012 RMK A01 T02350133  RH  055%=      5-min Rain = 0
KASU 190110Z 04004KT 23/13 A3012 RMK A01 T02330133  RH  056%=      5-min Rain = 0
KASU 190115Z 04004KT 23/13 A3013 RMK A01 T02320133  RH  056%=      5-min Rain = 0
KASU 190120Z 04004KT 23/13 A3013 RMK A01 T02300133  RH  057%=      5-min Rain = 0
KASU 190125Z 03003KT 23/13 A3013 RMK A01 T02280132  RH  057%=      5-min Rain = 0
KASU 190130Z 03003KT 23/13 A3013 RMK A01 T02270132  RH  057%=      5-min Rain = 0
KASU 190135Z 04004KT 23/13 A3013 RMK A01 T02250133  RH  058%=      5-min Rain = 0
KASU 190140Z 03004KT 22/13 A3013 RMK A01 T02230133  RH  059%=      5-min Rain = 0
KASU 190145Z 04003KT 22/13 A3013 RMK A01 T02230132  RH  058%=      5-min Rain = 0
KASU 190150Z 03003KT 22/13 A3014 RMK A01 T02220131  RH  059%=      5-min Rain = 0
KASU 190155Z 03003KT 22/13 A3014 RMK A01 T02210132  RH  059%=      5-min Rain = 0
KASU 190200Z 03003KT 22/13 A3014 RMK A01 T02190131  RH  060%=      5-min Rain = 0
KASU 190205Z 03004KT 22/13 A3014 RMK A01 T02180130  RH  060%=      5-min Rain = 0
KASU 190210Z 04004KT 22/13 A3015 RMK A01 T02170130  RH  060%=      5-min Rain = 0
KASU 190215Z 04004KT 22/13 A3015 RMK A01 T02160130  RH  060%=      5-min Rain = 0
KASU 190220Z 04004KT 22/13 A3015 RMK A01 T02150129  RH  060%=      5-min Rain = 0
KASU 190225Z 04005KT 22/13 A3015 RMK A01 T02150130  RH  060%=      5-min Rain = 0
KASU 190230Z 04005KT 22/13 A3015 RMK A01 T02150130  RH  060%=      5-min Rain = 0
KASU 190235Z 04005KT 22/13 A3016 RMK A01 T02150130  RH  061%=      5-min Rain = 0
KASU 190240Z 04005KT 22/13 A3016 RMK A01 T02170130  RH  060%=      5-min Rain = 0
KASU 190245Z 04005KT 22/13 A3016 RMK A01 T02170130  RH  060%=      5-min Rain = 0
KASU 190250Z 03005KT 22/13 A3016 RMK A01 T02160130  RH  060%=      5-min Rain = 0
KASU 190255Z 03004KT 22/13 A3016 RMK A01 T02160131  RH  061%=      5-min Rain = 0
KASU 190300Z 03005KT 22/13 A3016 RMK A01 T02150132  RH  062%=      5-min Rain = 0
KASU 190305Z 03005KT 22/13 A3016 RMK A01 T02150133  RH  062%=      5-min Rain = 0
KASU 190310Z 03005KT 22/13 A3017 RMK A01 T02150133  RH  062%=      5-min Rain = 0
KASU 190315Z 03005KT 21/13 A3017 RMK A01 T02140134  RH  063%=      5-min Rain = 0
KASU 190320Z 03005KT 21/13 A3017 RMK A01 T02130134  RH  063%=      5-min Rain = 0
KASU 190325Z 04006KT 21/14 A3017 RMK A01 T02130135  RH  063%=      5-min Rain = 0
KASU 190330Z 04006KT 21/14 A3017 RMK A01 T02120136  RH  064%=      5-min Rain = 0
KASU 190335Z 04005KT 21/14 A3017 RMK A01 T02100136  RH  065%=      5-min Rain = 0
KASU 190340Z 04006KT 21/14 A3017 RMK A01 T02100136  RH  065%=      5-min Rain = 0
KASU 190345Z 04006KT 21/14 A3017 RMK A01 T02100137  RH  066%=      5-min Rain = 0
KASU 190350Z 04006KT 21/14 A3017 RMK A01 T02100137  RH  066%=      5-min Rain = 0
KASU 190355Z 04006KT 21/14 A3017 RMK A01 T02090137  RH  066%=      5-min Rain = 0
KASU 190400Z 04006KT 21/14 A3018 RMK A01 T02080137  RH  066%=      5-min Rain = 0
KASU 190405Z 04006KT 21/14 A3018 RMK A01 T02080137  RH  066%=      5-min Rain = 0
KASU 190410Z 04005KT 21/14 A3018 RMK A01 T02080137  RH  066%=      5-min Rain = 0
KASU 190415Z 04005KT 21/14 A3018 RMK A01 T02070137  RH  067%=      5-min Rain = 0
KASU 190420Z 04006KT 21/14 A3018 RMK A01 T02050136  RH  067%=      5-min Rain = 0
KASU 190425Z 04005KT 21/14 A3018 RMK A01 T02050136  RH  067%=      5-min Rain = 0
KASU 190430Z 04006KT 21/14 A3018 RMK A01 T02050136  RH  067%=      5-min Rain = 0
KASU 190435Z 04006KT 21/14 A3018 RMK A01 T02050136  RH  067%=      5-min Rain = 0
KASU 190440Z 04006KT 20/14 A3018 RMK A01 T02040135  RH  067%=      5-min Rain = 0
KASU 190445Z 04005KT 20/14 A3018 RMK A01 T02040135  RH  067%=      5-min Rain = 0
KASU 190450Z 04005KT 20/14 A3018 RMK A01 T02030135  RH  068%=      5-min Rain = 0
KASU 190455Z 04004KT 20/14 A3018 RMK A01 T02020135  RH  068%=      5-min Rain = 0

Page generated in 0.0343 seconds.